UPS214 KABQ-KMSP
Flight info
| Callsign | UPS214 |
|---|---|
| Flight time | 1h 54m |
| Altitude | 35000 |
| Route | FYSTA3 FTI ONL FSD SSWAN TORGY4 |
| Aircraft | B748/H-VGDW/C |
Departure
| Time | 2026-05-06 14:30 |
|---|---|
| Airport | Albuquerque International Sunport (KABQ) |
Arrival
| Time | 2026-05-06 16:25 |
|---|---|
| Airport | Minneapolis–Saint Paul International Airport / Wold–Chamberlain Field (KMSP) |
| Time | Latitude | Longitude | Altitude | Speed | Heading |
|---|---|---|---|---|---|
| 2026-05-06 13:50 | 35.03051 | -106.62446 | 5327 ft | 0 kts | 319° |
| 2026-05-06 14:13 | 35.03058 | -106.62453 | 5327 ft | 2 kts | 324° |
| 2026-05-06 14:13 | 35.03065 | -106.62456 | 5318 ft | 1 kts | 339° |
| 2026-05-06 14:13 | 35.03070 | -106.62455 | 5320 ft | 1 kts | 356° |
| 2026-05-06 14:14 | 35.03075 | -106.62453 | 5323 ft | 1 kts | 13° |
| 2026-05-06 14:14 | 35.03079 | -106.62449 | 5322 ft | 1 kts | 30° |
| 2026-05-06 14:14 | 35.03081 | -106.62444 | 5316 ft | 1 kts | 48° |
| 2026-05-06 14:14 | 35.03083 | -106.62438 | 5316 ft | 1 kts | 66° |
| 2026-05-06 14:15 | 35.03082 | -106.62431 | 5316 ft | 1 kts | 85° |
| 2026-05-06 14:15 | 35.03086 | -106.62380 | 5324 ft | 11 kts | 85° |
| 2026-05-06 14:15 | 35.03081 | -106.62289 | 5319 ft | 10 kts | 101° |
| 2026-05-06 14:15 | 35.03097 | -106.62225 | 5319 ft | 9 kts | 56° |
| 2026-05-06 14:16 | 35.03159 | -106.62145 | 5317 ft | 16 kts | 46° |
| 2026-05-06 14:16 | 35.03255 | -106.62021 | 5315 ft | 24 kts | 47° |
| 2026-05-06 14:16 | 35.03388 | -106.61862 | 5319 ft | 28 kts | 43° |
| 2026-05-06 14:16 | 35.03530 | -106.61696 | 5335 ft | 28 kts | 45° |
| 2026-05-06 14:17 | 35.03671 | -106.61522 | 5335 ft | 30 kts | 45° |
| 2026-05-06 14:17 | 35.03848 | -106.61396 | 5332 ft | 31 kts | 11° |
| 2026-05-06 14:17 | 35.04069 | -106.61383 | 5319 ft | 26 kts | 0° |
| 2026-05-06 14:17 | 35.04193 | -106.61382 | 5335 ft | 13 kts | 6° |
| 2026-05-06 14:18 | 35.04236 | -106.61349 | 5335 ft | 5 kts | 57° |
| 2026-05-06 14:18 | 35.04245 | -106.61308 | 5333 ft | 5 kts | 86° |
| 2026-05-06 14:18 | 35.04245 | -106.61254 | 5330 ft | 8 kts | 90° |
| 2026-05-06 14:18 | 35.04245 | -106.61178 | 5335 ft | 10 kts | 90° |
| 2026-05-06 14:19 | 35.04245 | -106.61092 | 5333 ft | 10 kts | 92° |
| 2026-05-06 14:19 | 35.04243 | -106.61002 | 5338 ft | 11 kts | 92° |
| 2026-05-06 14:19 | 35.04240 | -106.60897 | 5339 ft | 14 kts | 92° |
| 2026-05-06 14:19 | 35.04242 | -106.60772 | 5338 ft | 16 kts | 88° |
| 2026-05-06 14:20 | 35.04242 | -106.60633 | 5341 ft | 16 kts | 91° |
| 2026-05-06 14:20 | 35.04246 | -106.60499 | 5343 ft | 15 kts | 76° |
| 2026-05-06 14:20 | 35.04260 | -106.60378 | 5344 ft | 15 kts | 91° |
| 2026-05-06 14:20 | 35.04258 | -106.60241 | 5346 ft | 18 kts | 91° |
| 2026-05-06 14:21 | 35.04258 | -106.60085 | 5347 ft | 19 kts | 89° |
| 2026-05-06 14:21 | 35.04257 | -106.59913 | 5346 ft | 22 kts | 91° |
| 2026-05-06 14:21 | 35.04255 | -106.59715 | 5345 ft | 24 kts | 91° |
| 2026-05-06 14:21 | 35.04257 | -106.59507 | 5347 ft | 23 kts | 90° |
| 2026-05-06 14:22 | 35.04249 | -106.59328 | 5348 ft | 19 kts | 94° |
| 2026-05-06 14:22 | 35.04245 | -106.59195 | 5351 ft | 12 kts | 86° |
| 2026-05-06 14:22 | 35.04249 | -106.59124 | 5353 ft | 5 kts | 86° |
| 2026-05-06 14:22 | 35.04250 | -106.59106 | 5353 ft | 0 kts | 88° |
| 2026-05-06 14:25 | 35.04250 | -106.59102 | 5354 ft | 1 kts | 88° |
| 2026-05-06 14:25 | 35.04250 | -106.59087 | 5356 ft | 2 kts | 88° |
| 2026-05-06 14:25 | 35.04251 | -106.59056 | 5356 ft | 5 kts | 88° |
| 2026-05-06 14:26 | 35.04251 | -106.59002 | 5355 ft | 8 kts | 90° |
| 2026-05-06 14:26 | 35.04252 | -106.58918 | 5355 ft | 12 kts | 90° |
| 2026-05-06 14:26 | 35.04260 | -106.58800 | 5358 ft | 16 kts | 84° |
| 2026-05-06 14:26 | 35.04263 | -106.58655 | 5363 ft | 18 kts | 90° |
| 2026-05-06 14:27 | 35.04262 | -106.58486 | 5365 ft | 22 kts | 90° |
| 2026-05-06 14:27 | 35.04260 | -106.58274 | 5361 ft | 28 kts | 90° |
| 2026-05-06 14:27 | 35.04258 | -106.58022 | 5362 ft | 32 kts | 90° |
| 2026-05-06 14:27 | 35.04254 | -106.57735 | 5361 ft | 35 kts | 91° |
| 2026-05-06 14:28 | 35.04271 | -106.57587 | 5365 ft | 9 kts | 49° |
| 2026-05-06 14:28 | 35.04301 | -106.57574 | 5364 ft | 5 kts | 4° |
| 2026-05-06 14:28 | 35.04361 | -106.57573 | 5366 ft | 10 kts | 355° |
| 2026-05-06 14:28 | 35.04401 | -106.57596 | 5364 ft | 3 kts | 313° |
| 2026-05-06 14:29 | 35.04405 | -106.57617 | 5364 ft | 1 kts | 272° |
| 2026-05-06 14:29 | 35.04405 | -106.57666 | 5364 ft | 11 kts | 270° |
| 2026-05-06 14:29 | 35.04405 | -106.58011 | 5362 ft | 77 kts | 271° |
| 2026-05-06 14:29 | 35.04411 | -106.58964 | 5354 ft | 145 kts | 270° |
| 2026-05-06 14:30 | 35.04417 | -106.60436 | 5355 ft | 199 kts | 268° |
| 2026-05-06 14:30 | 35.04386 | -106.62195 | 5715 ft | 212 kts | 263° |
| 2026-05-06 14:30 | 35.04211 | -106.64012 | 6208 ft | 218 kts | 262° |
| 2026-05-06 14:30 | 35.04074 | -106.65909 | 6498 ft | 228 kts | 265° |
| 2026-05-06 14:31 | 35.04006 | -106.67857 | 6864 ft | 231 kts | 267° |
| 2026-05-06 14:31 | 35.03947 | -106.69834 | 7204 ft | 238 kts | 267° |
| 2026-05-06 14:31 | 35.03870 | -106.71904 | 7368 ft | 251 kts | 268° |
| 2026-05-06 14:31 | 35.03932 | -106.74079 | 7493 ft | 262 kts | 276° |
| 2026-05-06 14:32 | 35.04452 | -106.76202 | 7740 ft | 266 kts | 302° |
| 2026-05-06 14:32 | 35.05760 | -106.77793 | 8076 ft | 270 kts | 329° |
| 2026-05-06 14:32 | 35.07560 | -106.78471 | 8646 ft | 275 kts | 356° |
| 2026-05-06 14:32 | 35.09426 | -106.78083 | 9370 ft | 281 kts | 22° |
| 2026-05-06 14:33 | 35.11105 | -106.76814 | 10025 ft | 287 kts | 32° |
| 2026-05-06 14:33 | 35.12696 | -106.75311 | 10604 ft | 291 kts | 34° |
| 2026-05-06 14:33 | 35.14309 | -106.73789 | 11157 ft | 294 kts | 33° |
| 2026-05-06 14:33 | 35.15973 | -106.72304 | 11713 ft | 298 kts | 33° |
| 2026-05-06 14:34 | 35.17442 | -106.70490 | 12291 ft | 307 kts | 56° |
| 2026-05-06 14:34 | 35.18297 | -106.68068 | 12794 ft | 314 kts | 69° |
| 2026-05-06 14:34 | 35.18971 | -106.65509 | 13305 ft | 319 kts | 71° |
| 2026-05-06 14:34 | 35.19635 | -106.62876 | 13671 ft | 330 kts | 70° |
| 2026-05-06 14:35 | 35.20359 | -106.60141 | 13825 ft | 347 kts | 70° |
| 2026-05-06 14:35 | 35.21139 | -106.57262 | 13938 ft | 366 kts | 70° |
| 2026-05-06 14:35 | 35.21996 | -106.54259 | 14302 ft | 376 kts | 65° |
| 2026-05-06 14:35 | 35.22976 | -106.51258 | 14835 ft | 383 kts | 68° |
| 2026-05-06 14:36 | 35.23904 | -106.48189 | 15451 ft | 387 kts | 68° |
| 2026-05-06 14:36 | 35.24869 | -106.45098 | 16068 ft | 391 kts | 66° |
| 2026-05-06 14:36 | 35.25876 | -106.41991 | 16691 ft | 394 kts | 66° |
| 2026-05-06 14:36 | 35.26883 | -106.38852 | 17293 ft | 398 kts | 67° |
| 2026-05-06 14:37 | 35.27883 | -106.35671 | 17906 ft | 402 kts | 67° |
| 2026-05-06 14:37 | 35.28878 | -106.32505 | 18479 ft | 406 kts | 67° |
| 2026-05-06 14:37 | 35.29904 | -106.29270 | 19007 ft | 409 kts | 67° |
| 2026-05-06 14:37 | 35.30940 | -106.26002 | 19552 ft | 413 kts | 67° |
| 2026-05-06 14:38 | 35.31979 | -106.22705 | 20098 ft | 417 kts | 67° |
| 2026-05-06 14:38 | 35.33026 | -106.19378 | 20647 ft | 420 kts | 67° |
| 2026-05-06 14:38 | 35.34082 | -106.16023 | 21186 ft | 424 kts | 67° |
| 2026-05-06 14:38 | 35.35146 | -106.12640 | 21708 ft | 428 kts | 67° |
| 2026-05-06 14:39 | 35.36219 | -106.09225 | 22198 ft | 431 kts | 67° |
| 2026-05-06 14:39 | 35.37300 | -106.05778 | 22702 ft | 435 kts | 67° |
| 2026-05-06 14:39 | 35.38388 | -106.02304 | 23197 ft | 439 kts | 67° |
| 2026-05-06 14:39 | 35.39486 | -105.98797 | 23645 ft | 442 kts | 67° |
| 2026-05-06 14:40 | 35.40592 | -105.95259 | 23994 ft | 446 kts | 67° |
| 2026-05-06 14:40 | 35.41706 | -105.91688 | 24319 ft | 451 kts | 67° |
| 2026-05-06 14:40 | 35.42832 | -105.88077 | 24630 ft | 456 kts | 68° |
| 2026-05-06 14:40 | 35.43970 | -105.84425 | 24932 ft | 461 kts | 68° |
| 2026-05-06 14:41 | 35.45118 | -105.80730 | 25218 ft | 466 kts | 68° |
| 2026-05-06 14:41 | 35.46281 | -105.76987 | 25507 ft | 471 kts | 68° |
| 2026-05-06 14:41 | 35.47452 | -105.73213 | 25789 ft | 476 kts | 68° |
| 2026-05-06 14:41 | 35.48636 | -105.69393 | 26072 ft | 481 kts | 68° |
| 2026-05-06 14:42 | 35.49833 | -105.65522 | 26343 ft | 487 kts | 69° |
| 2026-05-06 14:42 | 35.51038 | -105.61624 | 26631 ft | 492 kts | 69° |
| 2026-05-06 14:42 | 35.52241 | -105.57725 | 26900 ft | 497 kts | 69° |
| 2026-05-06 14:42 | 35.53471 | -105.53733 | 27213 ft | 502 kts | 69° |
| 2026-05-06 14:43 | 35.54713 | -105.49698 | 27509 ft | 508 kts | 69° |
| 2026-05-06 14:43 | 35.55967 | -105.45615 | 27807 ft | 513 kts | 69° |
| 2026-05-06 14:43 | 35.57231 | -105.41497 | 28088 ft | 518 kts | 69° |
| 2026-05-06 14:43 | 35.58509 | -105.37326 | 28401 ft | 523 kts | 70° |
| 2026-05-06 14:44 | 35.59797 | -105.33116 | 28711 ft | 528 kts | 70° |
| 2026-05-06 14:44 | 35.61093 | -105.28874 | 29017 ft | 533 kts | 70° |
| 2026-05-06 14:44 | 35.62403 | -105.24582 | 29315 ft | 539 kts | 70° |
| 2026-05-06 14:45 | 35.65489 | -105.16133 | 29934 ft | 546 kts | 53° |
| 2026-05-06 14:45 | 35.67845 | -105.12471 | 30221 ft | 545 kts | 41° |
| 2026-05-06 14:45 | 35.70688 | -105.09420 | 30496 ft | 541 kts | 28° |
| 2026-05-06 14:45 | 35.73743 | -105.06812 | 30728 ft | 543 kts | 28° |
| 2026-05-06 14:46 | 35.76885 | -105.04192 | 30969 ft | 547 kts | 28° |
| 2026-05-06 14:46 | 35.80053 | -105.01544 | 31219 ft | 551 kts | 28° |
| 2026-05-06 14:46 | 35.83217 | -104.98859 | 31474 ft | 555 kts | 29° |
| 2026-05-06 14:46 | 35.86401 | -104.96148 | 31734 ft | 558 kts | 28° |
| 2026-05-06 14:47 | 35.89615 | -104.93435 | 32000 ft | 561 kts | 28° |
| 2026-05-06 14:47 | 35.92844 | -104.90714 | 32273 ft | 564 kts | 28° |
| 2026-05-06 14:47 | 35.96096 | -104.87956 | 32538 ft | 567 kts | 28° |
| 2026-05-06 14:47 | 35.99350 | -104.85186 | 32819 ft | 570 kts | 28° |
| 2026-05-06 14:48 | 36.02628 | -104.82400 | 33102 ft | 573 kts | 28° |
| 2026-05-06 14:48 | 36.05925 | -104.79601 | 33383 ft | 576 kts | 28° |
| 2026-05-06 14:48 | 36.09240 | -104.76782 | 33652 ft | 579 kts | 29° |
| 2026-05-06 14:48 | 36.12566 | -104.73944 | 33914 ft | 582 kts | 29° |
| 2026-05-06 14:49 | 36.15912 | -104.71088 | 34153 ft | 585 kts | 29° |
| 2026-05-06 14:49 | 36.19261 | -104.68228 | 34490 ft | 585 kts | 29° |
| 2026-05-06 14:49 | 36.22614 | -104.65363 | 34789 ft | 586 kts | 29° |
| 2026-05-06 14:49 | 36.25983 | -104.62482 | 34898 ft | 592 kts | 29° |
| 2026-05-06 14:50 | 36.29370 | -104.59580 | 34906 ft | 591 kts | 29° |
| 2026-05-06 14:50 | 36.36092 | -104.53807 | 35451 ft | 588 kts | 29° |
| 2026-05-06 14:50 | 36.39442 | -104.50928 | 35941 ft | 585 kts | 29° |
| 2026-05-06 14:51 | 36.42779 | -104.48059 | 36382 ft | 582 kts | 29° |
| 2026-05-06 14:51 | 36.46109 | -104.45192 | 36745 ft | 582 kts | 29° |
| 2026-05-06 14:51 | 36.49444 | -104.42317 | 36987 ft | 584 kts | 29° |
| 2026-05-06 14:52 | 36.56143 | -104.36531 | 37011 ft | 585 kts | 30° |
| 2026-05-06 14:52 | 36.62815 | -104.30757 | 37016 ft | 584 kts | 30° |
| 2026-05-06 14:53 | 36.69483 | -104.24975 | 37019 ft | 583 kts | 30° |
| 2026-05-06 14:53 | 36.76138 | -104.19189 | 37009 ft | 583 kts | 30° |
| 2026-05-06 14:54 | 36.82741 | -104.13439 | 37010 ft | 582 kts | 30° |
| 2026-05-06 14:54 | 36.89378 | -104.07645 | 36993 ft | 582 kts | 30° |
| 2026-05-06 14:55 | 36.95998 | -104.01854 | 36997 ft | 580 kts | 30° |
| 2026-05-06 14:55 | 37.02600 | -103.96066 | 37014 ft | 579 kts | 30° |
| 2026-05-06 14:56 | 37.09197 | -103.90270 | 37033 ft | 579 kts | 30° |
| 2026-05-06 14:56 | 37.15784 | -103.84470 | 37041 ft | 577 kts | 30° |
| 2026-05-06 14:57 | 37.21251 | -103.79648 | 37046 ft | 578 kts | 30° |
| 2026-05-06 14:57 | 37.27817 | -103.73842 | 37056 ft | 577 kts | 30° |
| 2026-05-06 14:58 | 37.35440 | -103.67089 | 37067 ft | 576 kts | 30° |
| 2026-05-06 14:58 | 37.40924 | -103.62218 | 37069 ft | 575 kts | 30° |
| 2026-05-06 14:59 | 37.47402 | -103.56454 | 37076 ft | 574 kts | 30° |
| 2026-05-06 14:59 | 37.53920 | -103.50642 | 37089 ft | 572 kts | 30° |
| 2026-05-06 15:00 | 37.60407 | -103.44845 | 37100 ft | 572 kts | 30° |
| 2026-05-06 15:00 | 37.66900 | -103.39029 | 37107 ft | 571 kts | 30° |
| 2026-05-06 15:01 | 37.73379 | -103.33214 | 37115 ft | 571 kts | 30° |
| 2026-05-06 15:01 | 37.79864 | -103.27380 | 37129 ft | 571 kts | 31° |
| 2026-05-06 15:02 | 37.86329 | -103.21551 | 37121 ft | 569 kts | 31° |
| 2026-05-06 15:02 | 37.92736 | -103.15764 | 37132 ft | 570 kts | 31° |
| 2026-05-06 15:03 | 37.99197 | -103.09912 | 37133 ft | 569 kts | 31° |
| 2026-05-06 15:03 | 38.05637 | -103.04070 | 37149 ft | 568 kts | 31° |
| 2026-05-06 15:04 | 38.12062 | -102.98225 | 37153 ft | 569 kts | 31° |
| 2026-05-06 15:04 | 38.18492 | -102.92364 | 37162 ft | 569 kts | 31° |
| 2026-05-06 15:05 | 38.24932 | -102.86481 | 37161 ft | 569 kts | 31° |
| 2026-05-06 15:05 | 38.31347 | -102.80607 | 37164 ft | 567 kts | 31° |
| 2026-05-06 15:06 | 38.37744 | -102.74737 | 37166 ft | 566 kts | 31° |
| 2026-05-06 15:06 | 38.44123 | -102.68871 | 37169 ft | 565 kts | 31° |
| 2026-05-06 15:07 | 38.50451 | -102.63038 | 37176 ft | 564 kts | 31° |
| 2026-05-06 15:07 | 38.56812 | -102.57163 | 37178 ft | 564 kts | 31° |
| 2026-05-06 15:08 | 38.63177 | -102.51271 | 37186 ft | 564 kts | 31° |
| 2026-05-06 15:08 | 38.69536 | -102.45369 | 37187 ft | 564 kts | 31° |
| 2026-05-06 15:09 | 38.75886 | -102.39465 | 37196 ft | 563 kts | 31° |
| 2026-05-06 15:09 | 38.82231 | -102.33550 | 37198 ft | 563 kts | 31° |
| 2026-05-06 15:10 | 38.88567 | -102.27631 | 37203 ft | 562 kts | 31° |
| 2026-05-06 15:10 | 38.94894 | -102.21708 | 37200 ft | 562 kts | 31° |
| 2026-05-06 15:11 | 39.01176 | -102.15812 | 37190 ft | 563 kts | 31° |
| 2026-05-06 15:11 | 39.07494 | -102.09870 | 37185 ft | 563 kts | 31° |
| 2026-05-06 15:12 | 39.13815 | -102.03911 | 37174 ft | 561 kts | 31° |
| 2026-05-06 15:12 | 39.20101 | -101.97973 | 37192 ft | 560 kts | 31° |
| 2026-05-06 15:13 | 39.26375 | -101.92032 | 37189 ft | 559 kts | 31° |
| 2026-05-06 15:13 | 39.32639 | -101.86086 | 37175 ft | 558 kts | 31° |
| 2026-05-06 15:14 | 39.38893 | -101.80137 | 37165 ft | 558 kts | 31° |
| 2026-05-06 15:14 | 39.45139 | -101.74183 | 37167 ft | 558 kts | 31° |
| 2026-05-06 15:15 | 39.51385 | -101.68214 | 37178 ft | 558 kts | 31° |
| 2026-05-06 15:15 | 39.57581 | -101.62279 | 37198 ft | 557 kts | 31° |
| 2026-05-06 15:16 | 39.63804 | -101.56306 | 37208 ft | 556 kts | 31° |
| 2026-05-06 15:16 | 39.70030 | -101.50315 | 37213 ft | 556 kts | 31° |
| 2026-05-06 15:17 | 39.76247 | -101.44319 | 37210 ft | 555 kts | 31° |
| 2026-05-06 15:17 | 39.82442 | -101.38331 | 37218 ft | 554 kts | 31° |
| 2026-05-06 15:18 | 39.88627 | -101.32339 | 37218 ft | 554 kts | 32° |
| 2026-05-06 15:18 | 39.94808 | -101.26338 | 37235 ft | 555 kts | 32° |
| 2026-05-06 15:19 | 40.00957 | -101.20352 | 37214 ft | 554 kts | 32° |
| 2026-05-06 15:19 | 40.07137 | -101.14323 | 37216 ft | 555 kts | 32° |
| 2026-05-06 15:20 | 40.13317 | -101.08281 | 37209 ft | 555 kts | 32° |
| 2026-05-06 15:20 | 40.19496 | -101.02225 | 37193 ft | 555 kts | 32° |
| 2026-05-06 15:21 | 40.25665 | -100.96164 | 37191 ft | 553 kts | 32° |
| 2026-05-06 15:21 | 40.31809 | -100.90114 | 37189 ft | 552 kts | 32° |
| 2026-05-06 15:22 | 40.37946 | -100.84058 | 37187 ft | 551 kts | 32° |
| 2026-05-06 15:22 | 40.44065 | -100.78005 | 37186 ft | 551 kts | 32° |
| 2026-05-06 15:23 | 40.50190 | -100.71930 | 37187 ft | 550 kts | 32° |
| 2026-05-06 15:23 | 40.56297 | -100.65860 | 37179 ft | 550 kts | 32° |
| 2026-05-06 15:24 | 40.62354 | -100.59826 | 37183 ft | 550 kts | 32° |
| 2026-05-06 15:24 | 40.68453 | -100.53736 | 37182 ft | 550 kts | 32° |
| 2026-05-06 15:25 | 40.74554 | -100.47629 | 37184 ft | 550 kts | 32° |
| 2026-05-06 15:25 | 40.80647 | -100.41516 | 37185 ft | 550 kts | 32° |
| 2026-05-06 15:26 | 40.86732 | -100.35397 | 37175 ft | 550 kts | 32° |
| 2026-05-06 15:26 | 40.92813 | -100.29267 | 37178 ft | 549 kts | 32° |
| 2026-05-06 15:27 | 40.98887 | -100.23129 | 37179 ft | 549 kts | 32° |
| 2026-05-06 15:27 | 41.04951 | -100.16986 | 37174 ft | 547 kts | 32° |
| 2026-05-06 15:28 | 41.10958 | -100.10888 | 37175 ft | 547 kts | 32° |
| 2026-05-06 15:28 | 41.16995 | -100.04744 | 37175 ft | 547 kts | 33° |
| 2026-05-06 15:29 | 41.23026 | -99.98592 | 37171 ft | 546 kts | 33° |
| 2026-05-06 15:29 | 41.29049 | -99.92433 | 37173 ft | 545 kts | 33° |
| 2026-05-06 15:30 | 41.35051 | -99.86281 | 37176 ft | 544 kts | 33° |
| 2026-05-06 15:30 | 41.41048 | -99.80119 | 37158 ft | 543 kts | 33° |
| 2026-05-06 15:31 | 41.47027 | -99.73961 | 37163 ft | 542 kts | 33° |
| 2026-05-06 15:31 | 41.52955 | -99.67842 | 37179 ft | 542 kts | 33° |
| 2026-05-06 15:32 | 41.61885 | -99.58595 | 37169 ft | 541 kts | 33° |
| 2026-05-06 15:32 | 41.67828 | -99.52423 | 37164 ft | 540 kts | 33° |
| 2026-05-06 15:33 | 41.73762 | -99.46246 | 37164 ft | 541 kts | 33° |
| 2026-05-06 15:33 | 41.79689 | -99.40059 | 37172 ft | 540 kts | 33° |
| 2026-05-06 15:34 | 41.85608 | -99.33868 | 37173 ft | 539 kts | 33° |
| 2026-05-06 15:34 | 41.91515 | -99.27674 | 37175 ft | 539 kts | 33° |
| 2026-05-06 15:35 | 41.97425 | -99.21462 | 37180 ft | 539 kts | 33° |
| 2026-05-06 15:35 | 42.03341 | -99.15229 | 37177 ft | 540 kts | 33° |
| 2026-05-06 15:36 | 42.09200 | -99.09039 | 37173 ft | 539 kts | 33° |
| 2026-05-06 15:36 | 42.15097 | -99.02796 | 37182 ft | 539 kts | 33° |
| 2026-05-06 15:37 | 42.20988 | -98.96542 | 37183 ft | 538 kts | 33° |
| 2026-05-06 15:37 | 42.26863 | -98.90292 | 37181 ft | 538 kts | 33° |
| 2026-05-06 15:38 | 42.32735 | -98.84028 | 37166 ft | 537 kts | 33° |
| 2026-05-06 15:38 | 42.38584 | -98.77774 | 37172 ft | 536 kts | 33° |
| 2026-05-06 15:39 | 42.44418 | -98.71521 | 37175 ft | 534 kts | 33° |
| 2026-05-06 15:39 | 42.49785 | -98.64454 | 37169 ft | 544 kts | 45° |
| 2026-05-06 15:40 | 42.54704 | -98.56671 | 37173 ft | 543 kts | 45° |
| 2026-05-06 15:40 | 42.59656 | -98.48915 | 37181 ft | 544 kts | 45° |
| 2026-05-06 15:41 | 42.64587 | -98.41118 | 37180 ft | 544 kts | 45° |
| 2026-05-06 15:41 | 42.69521 | -98.33320 | 37180 ft | 543 kts | 45° |
| 2026-05-06 15:42 | 42.74426 | -98.25539 | 37188 ft | 541 kts | 45° |
| 2026-05-06 15:42 | 42.79329 | -98.17741 | 37185 ft | 542 kts | 45° |
| 2026-05-06 15:43 | 42.84194 | -98.09986 | 37184 ft | 542 kts | 46° |
| 2026-05-06 15:43 | 42.88296 | -98.03428 | 37188 ft | 543 kts | 46° |
| 2026-05-06 15:44 | 42.93992 | -97.94302 | 37192 ft | 543 kts | 46° |
| 2026-05-06 15:44 | 42.98881 | -97.86441 | 37197 ft | 543 kts | 46° |
| 2026-05-06 15:45 | 43.02946 | -97.79893 | 37199 ft | 543 kts | 46° |
| 2026-05-06 15:45 | 43.07823 | -97.72014 | 37202 ft | 543 kts | 46° |
| 2026-05-06 15:46 | 43.12695 | -97.64123 | 37200 ft | 542 kts | 46° |
| 2026-05-06 15:46 | 43.17561 | -97.56220 | 37201 ft | 543 kts | 46° |
| 2026-05-06 15:47 | 43.22418 | -97.48311 | 37209 ft | 542 kts | 46° |
| 2026-05-06 15:47 | 43.27268 | -97.40392 | 37207 ft | 542 kts | 46° |
| 2026-05-06 15:48 | 43.32108 | -97.32467 | 37199 ft | 542 kts | 46° |
| 2026-05-06 15:48 | 43.36946 | -97.24524 | 37198 ft | 542 kts | 46° |
| 2026-05-06 15:49 | 43.41776 | -97.16573 | 37188 ft | 541 kts | 46° |
| 2026-05-06 15:49 | 43.46591 | -97.08623 | 37175 ft | 541 kts | 46° |
| 2026-05-06 15:50 | 43.51405 | -97.00656 | 37164 ft | 541 kts | 46° |
| 2026-05-06 15:50 | 43.56209 | -96.92680 | 37151 ft | 540 kts | 46° |
| 2026-05-06 15:51 | 43.61001 | -96.84704 | 37147 ft | 539 kts | 46° |
| 2026-05-06 15:51 | 43.65816 | -96.76749 | 37154 ft | 538 kts | 45° |
| 2026-05-06 15:52 | 43.70688 | -96.68878 | 37149 ft | 539 kts | 46° |
| 2026-05-06 15:52 | 43.75563 | -96.61009 | 37152 ft | 538 kts | 45° |
| 2026-05-06 15:53 | 43.80410 | -96.53180 | 37155 ft | 539 kts | 46° |
| 2026-05-06 15:53 | 43.85277 | -96.45263 | 37154 ft | 539 kts | 45° |
| 2026-05-06 15:54 | 43.90155 | -96.37341 | 37132 ft | 540 kts | 46° |
| 2026-05-06 15:54 | 43.95013 | -96.29401 | 37137 ft | 539 kts | 46° |
| 2026-05-06 15:55 | 43.99865 | -96.21471 | 37140 ft | 538 kts | 46° |
| 2026-05-06 15:55 | 44.04691 | -96.13545 | 37146 ft | 537 kts | 46° |
| 2026-05-06 15:56 | 44.09487 | -96.05660 | 37153 ft | 537 kts | 46° |
| 2026-05-06 15:56 | 44.14288 | -95.97703 | 37156 ft | 538 kts | 50° |
| 2026-05-06 15:57 | 44.16332 | -95.93293 | 37170 ft | 545 kts | 61° |
| 2026-05-06 15:57 | 44.17919 | -95.88491 | 37146 ft | 547 kts | 64° |
| 2026-05-06 15:57 | 44.20962 | -95.78791 | 37140 ft | 546 kts | 64° |
| 2026-05-06 15:58 | 44.24031 | -95.69093 | 37136 ft | 547 kts | 64° |
| 2026-05-06 15:58 | 44.27076 | -95.59372 | 37139 ft | 547 kts | 64° |
| 2026-05-06 15:59 | 44.30121 | -95.49640 | 37139 ft | 547 kts | 64° |
| 2026-05-06 15:59 | 44.33158 | -95.39889 | 37141 ft | 547 kts | 64° |
| 2026-05-06 16:00 | 44.36181 | -95.30146 | 36958 ft | 544 kts | 64° |
| 2026-05-06 16:00 | 44.37665 | -95.25356 | 36520 ft | 543 kts | 64° |
| 2026-05-06 16:00 | 44.39154 | -95.20533 | 36170 ft | 537 kts | 64° |
| 2026-05-06 16:01 | 44.40623 | -95.15764 | 35724 ft | 532 kts | 64° |
| 2026-05-06 16:01 | 44.42081 | -95.11026 | 35265 ft | 527 kts | 64° |
| 2026-05-06 16:01 | 44.43521 | -95.06342 | 34818 ft | 523 kts | 64° |
| 2026-05-06 16:01 | 44.44950 | -95.01681 | 34339 ft | 519 kts | 64° |
| 2026-05-06 16:02 | 44.46366 | -94.97052 | 33842 ft | 515 kts | 64° |
| 2026-05-06 16:02 | 44.47767 | -94.92469 | 33352 ft | 510 kts | 64° |
| 2026-05-06 16:02 | 44.49154 | -94.87925 | 32868 ft | 505 kts | 64° |
| 2026-05-06 16:02 | 44.50520 | -94.83435 | 32405 ft | 500 kts | 64° |
| 2026-05-06 16:03 | 44.51877 | -94.78968 | 31945 ft | 495 kts | 64° |
| 2026-05-06 16:03 | 44.53215 | -94.74561 | 31496 ft | 490 kts | 64° |
| 2026-05-06 16:03 | 44.54540 | -94.70186 | 31043 ft | 485 kts | 64° |
| 2026-05-06 16:03 | 44.55850 | -94.65854 | 30604 ft | 480 kts | 64° |
| 2026-05-06 16:04 | 44.57147 | -94.61555 | 30171 ft | 476 kts | 64° |
| 2026-05-06 16:04 | 44.58427 | -94.57307 | 29650 ft | 471 kts | 64° |
| 2026-05-06 16:04 | 44.59696 | -94.53087 | 29145 ft | 467 kts | 64° |
| 2026-05-06 16:04 | 44.60951 | -94.48910 | 28654 ft | 462 kts | 64° |
| 2026-05-06 16:05 | 44.62177 | -94.44821 | 28178 ft | 458 kts | 64° |
| 2026-05-06 16:05 | 44.63403 | -94.40725 | 27691 ft | 453 kts | 64° |
| 2026-05-06 16:05 | 44.64568 | -94.36632 | 27231 ft | 450 kts | 70° |
| 2026-05-06 16:05 | 44.65510 | -94.32458 | 26752 ft | 446 kts | 70° |
| 2026-05-06 16:06 | 44.66430 | -94.28321 | 26281 ft | 443 kts | 70° |
| 2026-05-06 16:06 | 44.67350 | -94.24208 | 25836 ft | 439 kts | 70° |
| 2026-05-06 16:06 | 44.68270 | -94.20141 | 25392 ft | 435 kts | 70° |
| 2026-05-06 16:06 | 44.69183 | -94.16106 | 24916 ft | 431 kts | 70° |
| 2026-05-06 16:07 | 44.70080 | -94.12115 | 24372 ft | 426 kts | 70° |
| 2026-05-06 16:07 | 44.70963 | -94.08168 | 23763 ft | 421 kts | 70° |
| 2026-05-06 16:07 | 44.71840 | -94.04258 | 23055 ft | 416 kts | 69° |
| 2026-05-06 16:07 | 44.72705 | -94.00406 | 22348 ft | 411 kts | 70° |
| 2026-05-06 16:08 | 44.73559 | -93.96583 | 21678 ft | 407 kts | 70° |
| 2026-05-06 16:08 | 44.74390 | -93.92850 | 21370 ft | 392 kts | 70° |
| 2026-05-06 16:08 | 44.75186 | -93.89263 | 21185 ft | 376 kts | 70° |
| 2026-05-06 16:08 | 44.75961 | -93.85792 | 20750 ft | 369 kts | 69° |
| 2026-05-06 16:09 | 44.76729 | -93.82373 | 20268 ft | 364 kts | 69° |
| 2026-05-06 16:09 | 44.77482 | -93.79002 | 19777 ft | 360 kts | 70° |
| 2026-05-06 16:09 | 44.78225 | -93.75661 | 19275 ft | 356 kts | 70° |
| 2026-05-06 16:09 | 44.78958 | -93.72355 | 18789 ft | 352 kts | 70° |
| 2026-05-06 16:10 | 44.79685 | -93.69080 | 18298 ft | 348 kts | 70° |
| 2026-05-06 16:10 | 44.80392 | -93.65886 | 17798 ft | 344 kts | 70° |
| 2026-05-06 16:10 | 44.81087 | -93.62737 | 17602 ft | 330 kts | 70° |
| 2026-05-06 16:10 | 44.81750 | -93.59725 | 17491 ft | 314 kts | 70° |
| 2026-05-06 16:11 | 44.82380 | -93.56865 | 17140 ft | 299 kts | 69° |
| 2026-05-06 16:11 | 44.83004 | -93.54048 | 16134 ft | 303 kts | 69° |
| 2026-05-06 16:11 | 44.83625 | -93.51229 | 15322 ft | 300 kts | 70° |
| 2026-05-06 16:11 | 44.84236 | -93.48435 | 14554 ft | 296 kts | 70° |
| 2026-05-06 16:12 | 44.84830 | -93.45678 | 13791 ft | 292 kts | 73° |
| 2026-05-06 16:12 | 44.84933 | -93.42850 | 13060 ft | 289 kts | 101° |
| 2026-05-06 16:12 | 44.84195 | -93.40253 | 12290 ft | 284 kts | 121° |
| 2026-05-06 16:12 | 44.83167 | -93.37868 | 11497 ft | 283 kts | 122° |
| 2026-05-06 16:13 | 44.82141 | -93.35570 | 11037 ft | 269 kts | 122° |
| 2026-05-06 16:13 | 44.81180 | -93.33371 | 10540 ft | 260 kts | 121° |
| 2026-05-06 16:13 | 44.80250 | -93.31214 | 9983 ft | 256 kts | 121° |
| 2026-05-06 16:13 | 44.79329 | -93.29086 | 9336 ft | 253 kts | 121° |
| 2026-05-06 16:14 | 44.78414 | -93.26986 | 8742 ft | 250 kts | 121° |
| 2026-05-06 16:14 | 44.77512 | -93.24916 | 8165 ft | 247 kts | 121° |
| 2026-05-06 16:14 | 44.76626 | -93.22885 | 7996 ft | 243 kts | 121° |
| 2026-05-06 16:14 | 44.75729 | -93.20834 | 8012 ft | 245 kts | 123° |
| 2026-05-06 16:15 | 44.74651 | -93.18967 | 8022 ft | 248 kts | 131° |
| 2026-05-06 16:15 | 44.73557 | -93.17110 | 8008 ft | 247 kts | 130° |
| 2026-05-06 16:15 | 44.72461 | -93.15241 | 8014 ft | 247 kts | 130° |
| 2026-05-06 16:15 | 44.71356 | -93.13393 | 8015 ft | 247 kts | 131° |
| 2026-05-06 16:16 | 44.70262 | -93.11570 | 8013 ft | 247 kts | 131° |
| 2026-05-06 16:16 | 44.69149 | -93.09713 | 7884 ft | 247 kts | 131° |
| 2026-05-06 16:16 | 44.68048 | -93.07872 | 7714 ft | 245 kts | 131° |
| 2026-05-06 16:16 | 44.66954 | -93.06046 | 7541 ft | 244 kts | 131° |
| 2026-05-06 16:17 | 44.65860 | -93.04222 | 7383 ft | 244 kts | 131° |
| 2026-05-06 16:17 | 44.64779 | -93.02396 | 7216 ft | 243 kts | 127° |
| 2026-05-06 16:17 | 44.64133 | -93.00245 | 7068 ft | 240 kts | 93° |
| 2026-05-06 16:17 | 44.64387 | -92.97989 | 7007 ft | 232 kts | 58° |
| 2026-05-06 16:18 | 44.65390 | -92.96272 | 7055 ft | 225 kts | 33° |
| 2026-05-06 16:18 | 44.66631 | -92.94923 | 6835 ft | 226 kts | 32° |
| 2026-05-06 16:18 | 44.67880 | -92.93574 | 6475 ft | 226 kts | 33° |
| 2026-05-06 16:18 | 44.69193 | -92.92482 | 6150 ft | 214 kts | 8° |
| 2026-05-06 16:19 | 44.70635 | -92.92382 | 5883 ft | 207 kts | 343° |
| 2026-05-06 16:19 | 44.71907 | -92.93172 | 5623 ft | 201 kts | 321° |
| 2026-05-06 16:19 | 44.73022 | -92.94347 | 5342 ft | 200 kts | 321° |
| 2026-05-06 16:19 | 44.74120 | -92.95515 | 5102 ft | 194 kts | 321° |
| 2026-05-06 16:20 | 44.75199 | -92.96656 | 4846 ft | 188 kts | 321° |
| 2026-05-06 16:20 | 44.76218 | -92.97732 | 4587 ft | 184 kts | 321° |
| 2026-05-06 16:20 | 44.77252 | -92.98831 | 4337 ft | 184 kts | 320° |
| 2026-05-06 16:20 | 44.78249 | -92.99962 | 4091 ft | 186 kts | 317° |
| 2026-05-06 16:21 | 44.79122 | -93.01278 | 3834 ft | 183 kts | 303° |
| 2026-05-06 16:21 | 44.79828 | -93.02781 | 3603 ft | 184 kts | 302° |
| 2026-05-06 16:21 | 44.80486 | -93.04290 | 3368 ft | 178 kts | 301° |
| 2026-05-06 16:21 | 44.81118 | -93.05752 | 3120 ft | 171 kts | 301° |
| 2026-05-06 16:22 | 44.81717 | -93.07132 | 2966 ft | 158 kts | 301° |
| 2026-05-06 16:22 | 44.82292 | -93.08459 | 2925 ft | 159 kts | 301° |
| 2026-05-06 16:22 | 44.82856 | -93.09743 | 2705 ft | 155 kts | 300° |
| 2026-05-06 16:22 | 44.83408 | -93.11017 | 2507 ft | 153 kts | 301° |
| 2026-05-06 16:23 | 44.83959 | -93.12287 | 2289 ft | 151 kts | 301° |
| 2026-05-06 16:23 | 44.84501 | -93.13546 | 2071 ft | 149 kts | 301° |
| 2026-05-06 16:23 | 44.85043 | -93.14784 | 1828 ft | 148 kts | 301° |
| 2026-05-06 16:23 | 44.85577 | -93.16021 | 1573 ft | 148 kts | 302° |
| 2026-05-06 16:24 | 44.86117 | -93.17270 | 1350 ft | 149 kts | 302° |
| 2026-05-06 16:24 | 44.86654 | -93.18506 | 1118 ft | 148 kts | 304° |
| 2026-05-06 16:24 | 44.87195 | -93.19751 | 932 ft | 149 kts | 303° |
| 2026-05-06 16:24 | 44.87730 | -93.20991 | 831 ft | 143 kts | 304° |
| 2026-05-06 16:25 | 44.88151 | -93.21957 | 826 ft | 79 kts | 301° |
| 2026-05-06 16:25 | 44.88285 | -93.22268 | 829 ft | 16 kts | 301° |
| 2026-05-06 16:25 | 44.88341 | -93.22398 | 826 ft | 15 kts | 300° |
| 2026-05-06 16:25 | 44.88380 | -93.22490 | 821 ft | 8 kts | 301° |
| 2026-05-06 16:26 | 44.88416 | -93.22573 | 821 ft | 12 kts | 301° |
| 2026-05-06 16:26 | 44.88470 | -93.22697 | 821 ft | 17 kts | 301° |
| 2026-05-06 16:26 | 44.88482 | -93.22797 | 827 ft | 3 kts | 248° |
| 2026-05-06 16:26 | 44.88473 | -93.22814 | 822 ft | 3 kts | 233° |
| 2026-05-06 16:27 | 44.88444 | -93.22846 | 825 ft | 6 kts | 209° |
| 2026-05-06 16:27 | 44.88414 | -93.22846 | 824 ft | 3 kts | 162° |
| 2026-05-06 16:27 | 44.88397 | -93.22824 | 825 ft | 5 kts | 131° |
| 2026-05-06 16:27 | 44.88364 | -93.22761 | 823 ft | 11 kts | 125° |
| 2026-05-06 16:28 | 44.88324 | -93.22660 | 824 ft | 15 kts | 117° |
| 2026-05-06 16:28 | 44.88297 | -93.22614 | 823 ft | 2 kts | 156° |
| 2026-05-06 16:28 | 44.88273 | -93.22606 | 826 ft | 4 kts | 174° |
| 2026-05-06 16:28 | 44.88254 | -93.22615 | 827 ft | 4 kts | 205° |
| 2026-05-06 16:29 | 44.88226 | -93.22648 | 825 ft | 8 kts | 221° |
| 2026-05-06 16:29 | 44.88174 | -93.22720 | 827 ft | 14 kts | 225° |
| 2026-05-06 16:29 | 44.88093 | -93.22836 | 824 ft | 20 kts | 224° |
| 2026-05-06 16:29 | 44.88023 | -93.22939 | 824 ft | 10 kts | 234° |
| 2026-05-06 16:30 | 44.88023 | -93.23032 | 822 ft | 10 kts | 296° |
| 2026-05-06 16:30 | 44.88037 | -93.23061 | 829 ft | 10 kts | 303° |
| 2026-05-06 16:30 | 44.88126 | -93.23262 | 827 ft | 19 kts | 302° |
| 2026-05-06 16:30 | 44.88172 | -93.23368 | 825 ft | 5 kts | 291° |
| 2026-05-06 16:31 | 44.88172 | -93.23381 | 823 ft | 1 kts | 265° |
| 2026-05-06 16:31 | 44.88169 | -93.23387 | 825 ft | 1 kts | 248° |
| 2026-05-06 16:31 | 44.88163 | -93.23394 | 823 ft | 1 kts | 220° |
| 2026-05-06 16:31 | 44.88138 | -93.23416 | 824 ft | 7 kts | 215° |
| 2026-05-06 16:32 | 44.88113 | -93.23438 | 825 ft | 2 kts | 208° |